Time;durP1;ratioP1;P1;durP2;ratioP2;P2;SDS_P1;SDS_P2;PMS_P1;PMS_P2;Temp;Humidity;BMP_temperature;BMP_pressure;BME280_temperature;BME280_humidity;BME280_pressure;Samples;Min_cycle;Max_cycle;Signal;HPM_P1;HPM_P2
2022/11/09 00:01:02;;;;;;;28.20;14.70;;;;;;;6.21;94.95;98284.06;1687447;84;20957;-79
2022/11/09 00:03:29;;;;;;;27.58;13.62;;;;;;;6.25;94.97;98291.05;1684242;85;20968;-78
2022/11/09 00:05:57;;;;;;;25.45;13.38;;;;;;;6.30;95.19;98296.27;1670449;86;20962;-78
2022/11/09 00:08:24;;;;;;;23.83;13.50;;;;;;;6.31;94.86;98293.63;1668175;85;20942;-78
2022/11/09 00:10:54;;;;;;;23.75;14.13;;;;;;;6.36;95.58;98293.61;1668904;86;21053;-78
2022/11/09 00:13:23;;;;;;;23.20;13.60;;;;;;;6.40;95.23;98294.45;1663395;85;21422;-78
2022/11/09 00:15:49;;;;;;;22.80;13.10;;;;;;;6.42;94.98;98298.82;1697228;84;20991;-78
2022/11/09 00:18:16;;;;;;;27.95;13.80;;;;;;;6.45;95.51;98296.14;1680828;85;21050;-78
2022/11/09 00:20:42;;;;;;;22.65;13.08;;;;;;;6.46;95.05;98293.97;1683790;84;21105;-77
2022/11/09 00:23:09;;;;;;;23.18;13.62;;;;;;;6.47;95.46;98296.14;1673785;84;21498;-77
2022/11/09 00:25:35;;;;;;;20.00;13.18;;;;;;;6.51;95.46;98300.96;1689970;84;20996;-77
2022/11/09 00:28:01;;;;;;;21.48;12.37;;;;;;;6.52;95.07;98294.80;1683068;84;20986;-76
2022/11/09 00:30:28;;;;;;;19.75;12.80;;;;;;;6.49;94.62;98299.65;1678852;84;21005;-76
2022/11/09 00:32:55;;;;;;;24.02;13.55;;;;;;;6.55;95.55;98296.07;1694492;84;20957;-76
2022/11/09 00:35:21;;;;;;;20.57;12.88;;;;;;;6.61;95.20;98297.36;1692630;84;21000;-76
2022/11/09 00:37:48;;;;;;;30.08;13.45;;;;;;;6.56;94.75;98298.70;1661767;86;21430;-76
2022/11/09 00:40:15;;;;;;;24.75;12.75;;;;;;;6.54;95.04;98291.27;1694542;84;20968;-76
2022/11/09 00:42:41;;;;;;;26.65;14.15;;;;;;;6.52;95.08;98290.39;1694550;84;21040;-76
2022/11/09 00:45:09;;;;;;;37.25;13.85;;;;;;;6.43;95.04;98291.34;1672649;84;21056;-76
2022/11/09 00:47:36;;;;;;;25.72;13.85;;;;;;;6.42;94.76;98292.67;1674550;85;21057;-76
2022/11/09 00:50:04;;;;;;;48.70;14.53;;;;;;;6.43;94.73;98289.14;1692377;84;21047;-77
2022/11/09 00:52:31;;;;;;;22.75;12.80;;;;;;;6.39;94.62;98293.56;1694546;84;20980;-78
2022/11/09 00:54:57;;;;;;;43.15;13.78;;;;;;;6.40;94.80;98288.73;1694703;84;21016;-78
2022/11/09 00:57:24;;;;;;;42.45;12.75;;;;;;;6.41;95.04;98282.60;1694632;84;21005;-78
2022/11/09 00:59:52;;;;;;;33.95;13.22;;;;;;;6.38;95.07;98279.98;1694253;84;21024;-78
2022/11/09 01:02:19;;;;;;;26.33;12.10;;;;;;;6.34;94.29;98282.20;1693498;84;21493;-78
2022/11/09 01:04:46;;;;;;;40.33;12.03;;;;;;;6.31;94.54;98276.98;1670742;85;21029;-78
2022/11/09 01:07:12;;;;;;;43.25;12.60;;;;;;;6.26;94.70;98285.33;1673982;85;21069;-78
2022/11/09 01:09:39;;;;;;;26.82;13.03;;;;;;;6.17;94.69;98279.27;1676238;85;21074;-78
2022/11/09 01:12:05;;;;;;;39.18;11.85;;;;;;;6.10;94.50;98278.01;1673829;84;21053;-78
2022/11/09 01:14:32;;;;;;;39.08;12.80;;;;;;;6.09;94.62;98277.13;1687153;84;21036;-77
2022/11/09 01:16:59;;;;;;;19.42;11.65;;;;;;;6.06;94.67;98274.50;1691645;84;21383;-77
2022/11/09 01:19:26;;;;;;;23.75;13.15;;;;;;;6.04;94.90;98274.97;1684745;84;21055;-77
2022/11/09 01:21:52;;;;;;;22.77;12.07;;;;;;;6.05;95.13;98275.39;1694634;84;20966;-77
2022/11/09 01:24:20;;;;;;;21.35;11.83;;;;;;;6.05;95.14;98272.76;1696072;84;21022;-77
2022/11/09 01:26:47;;;;;;;32.55;13.70;;;;;;;6.04;95.07;98273.22;1699258;84;20965;-78
2022/11/09 01:29:14;;;;;;;31.50;12.07;;;;;;;6.03;95.17;98269.28;1681301;85;21012;-78
2022/11/09 01:31:40;;;;;;;31.27;13.93;;;;;;;5.96;95.63;98271.04;1674610;86;20958;-78
2022/11/09 01:34:07;;;;;;;25.12;12.03;;;;;;;5.92;94.92;98267.99;1687395;85;21029;-78
2022/11/09 01:36:33;;;;;;;29.40;11.68;;;;;;;5.86;95.74;98271.98;1688584;85;20963;-78
2022/11/09 01:39:00;;;;;;;27.25;12.93;;;;;;;5.76;96.59;98268.09;1693589;85;21043;-78
2022/11/09 01:41:27;;;;;;;27.07;12.88;;;;;;;5.75;95.30;98262.83;1682372;84;21001;-78
2022/11/09 01:44:11;;;;;;;21.00;11.95;;;;;;;5.75;95.36;98262.83;1694640;84;21026;-78
2022/11/09 01:46:49;;;;;;;25.02;11.63;;;;;;;5.73;95.89;98266.78;1694612;84;20991;-77
2022/11/09 01:49:34;;;;;;;19.70;10.80;;;;;;;5.70;96.54;98268.56;1694269;84;20979;-76
2022/11/09 01:52:06;;;;;;;19.73;10.93;;;;;;;5.66;96.73;98263.30;1699923;84;21450;-76
2022/11/09 01:54:37;;;;;;;19.35;10.18;;;;;;;5.66;96.23;98270.34;1699425;84;21075;-76
2022/11/09 01:57:09;;;;;;;16.85;10.40;;;;;;;5.65;96.42;98269.45;1699799;84;20992;-76
2022/11/09 01:59:40;;;;;;;25.15;11.08;;;;;;;5.67;96.50;98271.66;1680765;85;21001;-76
2022/11/09 02:02:08;;;;;;;18.23;9.00;;;;;;;5.64;96.78;98270.77;1699690;83;20976;-76
2022/11/09 02:04:40;;;;;;;17.48;9.80;;;;;;;5.61;96.83;98266.86;1681474;85;21008;-76
2022/11/09 02:07:09;;;;;;;16.62;10.20;;;;;;;5.64;96.54;98264.20;1699874;84;21083;-76
2022/11/09 02:09:42;;;;;;;18.48;10.25;;;;;;;5.70;96.50;98273.82;1699194;84;21049;-76
2022/11/09 02:12:10;;;;;;;18.57;10.18;;;;;;;5.73;96.35;98264.61;1693137;83;21033;-76
2022/11/09 02:14:39;;;;;;;20.50;8.70;;;;;;;5.82;96.78;98271.14;1689689;84;20998;-76
2022/11/09 02:17:07;;;;;;;16.20;9.78;;;;;;;5.82;96.17;98259.30;1699642;84;21034;-76
2022/11/09 02:19:33;;;;;;;16.87;9.00;;;;;;;5.81;96.17;98261.47;1693574;84;21006;-75
2022/11/09 02:22:01;;;;;;;15.50;9.28;;;;;;;5.89;96.55;98261.42;1697289;84;21067;-75
2022/11/09 02:24:29;;;;;;;13.93;8.58;;;;;;;5.98;96.48;98259.20;1683778;84;21028;-76
2022/11/09 02:26:56;;;;;;;13.05;7.95;;;;;;;6.01;95.89;98264.41;1697059;84;21026;-76
2022/11/09 02:29:34;;;;;;;14.28;9.45;;;;;;;5.93;95.64;98261.41;1697999;84;21098;-76
2022/11/09 02:32:09;;;;;;;18.42;9.53;;;;;;;5.86;95.58;98266.27;1673563;85;21057;-76
2022/11/09 02:34:36;;;;;;;18.30;9.08;;;;;;;5.84;95.86;98266.73;1667737;85;21031;-77
2022/11/09 02:37:02;;;;;;;15.90;9.00;;;;;;;5.87;95.76;98265.83;1681341;85;21441;-77
2022/11/09 02:39:29;;;;;;;16.42;9.35;;;;;;;5.80;95.77;98267.62;1681081;85;21035;-77
2022/11/09 02:42:14;;;;;;;26.15;11.55;;;;;;;5.78;95.41;98266.77;1678741;85;21035;-77
2022/11/09 02:44:48;;;;;;;14.65;9.00;;;;;;;5.74;95.54;98265.03;1697934;84;21002;-77
2022/11/09 02:47:15;;;;;;;17.45;9.10;;;;;;;5.68;95.53;98264.19;1681506;84;21426;-77
2022/11/09 02:49:42;;;;;;;19.92;9.68;;;;;;;5.61;95.20;98261.14;1667326;84;21071;-77
2022/11/09 02:52:08;;;;;;;20.92;9.30;;;;;;;5.58;95.33;98258.55;1650442;86;21004;-77
2022/11/09 02:54:35;;;;;;;19.95;9.58;;;;;;;5.52;95.79;98252.02;1647415;86;21009;-77
2022/11/09 02:57:04;;;;;;;21.93;9.23;;;;;;;5.46;95.19;98252.91;1670143;86;20977;-77
2022/11/09 02:59:31;;;;;;;24.52;8.63;;;;;;;5.38;95.35;98258.63;1655400;86;21058;-78
2022/11/09 03:01:58;;;;;;;18.40;9.28;;;;;;;5.28;95.07;98262.61;1666664;85;20985;-78
2022/11/09 03:04:26;;;;;;;23.05;8.68;;;;;;;5.22;95.15;98256.50;1652092;86;21448;-78
2022/11/09 03:06:52;;;;;;;13.50;9.10;;;;;;;5.16;95.97;98250.84;1652050;86;21043;-77
2022/11/09 03:09:19;;;;;;;27.05;9.13;;;;;;;5.13;95.69;98245.59;1658119;86;21379;-77
2022/11/09 03:11:46;;;;;;;15.72;8.75;;;;;;;5.12;95.60;98251.73;1666192;86;20961;-77
2022/11/09 03:14:14;;;;;;;20.80;8.78;;;;;;;5.14;95.61;98251.27;1654812;86;21537;-77
2022/11/09 03:16:42;;;;;;;20.82;8.75;;;;;;;5.15;96.32;98251.73;1649342;86;21148;-77
2022/11/09 03:19:09;;;;;;;15.75;8.63;;;;;;;5.09;95.92;98256.98;1670142;86;21383;-76
2022/11/09 03:21:36;;;;;;;17.67;8.03;;;;;;;5.01;96.26;98258.33;1670213;86;21020;-77
2022/11/09 03:24:06;;;;;;;18.48;8.38;;;;;;;4.91;96.06;98257.92;1664632;86;21012;-76
2022/11/09 03:26:33;;;;;;;24.45;10.03;;;;;;;4.82;96.19;98258.36;1654695;86;21009;-76
2022/11/09 03:29:00;;;;;;;18.62;8.78;;;;;;;4.80;96.25;98262.76;1665548;86;21712;-76
2022/11/09 03:31:28;;;;;;;15.88;9.03;;;;;;;4.82;96.19;98263.62;1650639;86;21419;-76
2022/11/09 03:33:55;;;;;;;15.23;9.65;;;;;;;4.88;96.25;98264.05;1670248;86;21326;-76
2022/11/09 03:36:22;;;;;;;18.05;8.83;;;;;;;4.96;96.45;98262.72;1661970;86;21064;-76
2022/11/09 03:38:49;;;;;;;14.03;8.73;;;;;;;5.06;96.43;98266.21;1657506;86;20986;-76
2022/11/09 03:41:16;;;;;;;14.95;9.13;;;;;;;5.16;96.33;98266.61;1678766;85;21407;-76
2022/11/09 03:43:42;;;;;;;14.33;8.20;;;;;;;5.23;96.46;98264.84;1652824;86;21014;-76
2022/11/09 03:46:09;;;;;;;19.67;7.60;;;;;;;5.25;96.46;98260.02;1673777;85;21434;-76
2022/11/09 03:48:36;;;;;;;12.78;8.03;;;;;;;5.26;96.16;98261.75;1666446;84;21470;-76
2022/11/09 03:51:03;;;;;;;14.55;7.62;;;;;;;5.26;96.29;98260.87;1690883;84;20952;-76
2022/11/09 03:53:29;;;;;;;11.88;7.22;;;;;;;5.31;96.67;98259.55;1674803;85;21433;-77
2022/11/09 03:55:57;;;;;;;12.90;7.83;;;;;;;5.34;96.45;98260.84;1681786;84;20997;-77
2022/11/09 03:58:24;;;;;;;12.88;7.30;;;;;;;5.33;96.54;98263.92;1685628;85;21007;-77
2022/11/09 04:00:50;;;;;;;12.65;7.28;;;;;;;5.35;96.83;98258.67;1691097;85;21084;-76
2022/11/09 04:03:17;;;;;;;11.28;7.92;;;;;;;5.38;96.74;98264.77;1686319;85;20993;-76
2022/11/09 04:05:43;;;;;;;12.85;7.25;;;;;;;5.41;96.35;98271.31;1690998;84;21414;-76
2022/11/09 04:08:10;;;;;;;14.30;7.90;;;;;;;5.39;96.23;98263.89;1688661;84;20986;-76
2022/11/09 04:10:37;;;;;;;12.40;8.18;;;;;;;5.37;96.07;98265.66;1690848;85;21026;-76
2022/11/09 04:13:03;;;;;;;12.78;6.97;;;;;;;5.34;96.16;98260.84;1680697;85;21049;-76
2022/11/09 04:15:30;;;;;;;13.03;7.55;;;;;;;5.28;96.01;98258.67;1686443;85;21005;-76
2022/11/09 04:18:02;;;;;;;13.58;7.28;;;;;;;5.25;95.95;98253.88;1688708;85;21035;-77
2022/11/09 04:20:31;;;;;;;13.80;7.05;;;;;;;5.20;96.42;98256.53;1688443;85;20986;-77
2022/11/09 04:23:01;;;;;;;11.38;7.00;;;;;;;5.20;96.11;98250.39;1690391;84;21409;-77
2022/11/09 04:25:34;;;;;;;14.93;7.67;;;;;;;5.19;96.32;98258.70;1692449;85;20991;-77
2022/11/09 04:28:03;;;;;;;12.85;7.05;;;;;;;5.16;95.85;98256.10;1690335;84;21061;-77
2022/11/09 04:30:33;;;;;;;12.93;7.25;;;;;;;5.09;95.94;98259.19;1682110;85;21005;-76
2022/11/09 04:33:01;;;;;;;11.20;7.47;;;;;;;5.01;95.84;98252.64;1689956;85;20967;-76
2022/11/09 04:35:30;;;;;;;17.87;7.78;;;;;;;4.95;95.90;98259.66;1688118;85;21000;-77
2022/11/09 04:38:02;;;;;;;15.90;7.75;;;;;;;4.90;96.47;98258.34;1688290;85;21040;-77
2022/11/09 04:40:33;;;;;;;19.80;7.85;;;;;;;4.85;96.29;98261.42;1692057;84;21036;-78
2022/11/09 04:43:05;;;;;;;18.25;7.90;;;;;;;4.83;96.05;98263.19;1691394;84;21036;-76
2022/11/09 04:45:34;;;;;;;14.47;8.83;;;;;;;4.78;95.94;98252.71;1688139;84;20977;-77
2022/11/09 04:48:03;;;;;;;13.35;7.92;;;;;;;4.75;95.95;98260.58;1689434;84;21068;-77
2022/11/09 04:50:31;;;;;;;14.07;8.23;;;;;;;4.74;96.26;98253.13;1690091;85;21459;-77
2022/11/09 04:53:11;;;;;;;15.95;7.90;;;;;;;4.76;96.42;98253.14;1690705;84;21049;-77
2022/11/09 04:55:39;;;;;;;15.00;9.08;;;;;;;4.77;96.34;98252.25;1682243;85;21004;-77
2022/11/09 04:58:06;;;;;;;17.12;9.70;;;;;;;4.78;96.01;98256.66;1690262;84;21044;-75
2022/11/09 05:00:33;;;;;;;21.02;9.58;;;;;;;4.83;96.29;98265.81;1689541;85;21056;-75
2022/11/09 05:03:02;;;;;;;20.15;8.68;;;;;;;4.82;96.04;98262.77;1638179;87;21027;-75
2022/11/09 05:05:29;;;;;;;16.20;8.85;;;;;;;4.80;96.16;98256.62;1658192;85;20993;-77
2022/11/09 05:07:56;;;;;;;16.55;8.40;;;;;;;4.80;96.32;98253.99;1689484;84;21564;-76
2022/11/09 05:10:23;;;;;;;16.70;8.93;;;;;;;4.73;96.45;98259.69;1692285;84;21036;-76
2022/11/09 05:12:49;;;;;;;11.70;7.55;;;;;;;4.72;96.29;98260.15;1689216;84;21485;-76
2022/11/09 05:15:17;;;;;;;12.45;7.97;;;;;;;4.73;96.44;98255.75;1691785;84;20953;-75
2022/11/09 05:17:43;;;;;;;14.85;8.08;;;;;;;4.73;96.51;98253.13;1688113;84;20989;-75
2022/11/09 05:20:11;;;;;;;15.25;8.08;;;;;;;4.76;96.32;98261.02;1689676;85;20977;-75
2022/11/09 05:25:24;;;;;;;14.83;7.37;;;;;;;4.73;96.11;98265.83;1669552;85;21450;-75
2022/11/09 05:27:52;;;;;;;18.45;7.90;;;;;;;4.72;96.06;98261.47;1667103;85;21802;-74
2022/11/09 05:30:19;;;;;;;14.40;7.72;;;;;;;4.71;96.55;98274.16;1669980;86;21482;-75
2022/11/09 05:32:46;;;;;;;14.78;7.50;;;;;;;4.66;96.33;98265.84;1667653;86;21400;-75
2022/11/09 05:35:13;;;;;;;15.28;7.85;;;;;;;4.66;96.26;98268.05;1669431;86;21022;-77
2022/11/09 05:37:40;;;;;;;17.77;8.93;;;;;;;4.68;96.44;98271.53;1666936;85;21419;-77
2022/11/09 05:40:08;;;;;;;15.78;7.08;;;;;;;4.75;96.87;98275.91;1687551;84;21048;-78
2022/11/09 05:42:43;;;;;;;13.62;7.83;;;;;;;4.80;96.40;98265.81;1680818;85;20972;-78
2022/11/09 05:45:11;;;;;;;38.05;18.00;;;;;;;4.84;96.54;98278.95;1692164;83;21733;-77
2022/11/09 05:47:40;;;;;;;12.18;7.35;;;;;;;4.89;96.63;98276.30;1653961;86;20994;-78
2022/11/09 05:50:11;;;;;;;13.88;7.87;;;;;;;4.95;96.59;98280.67;1683657;85;21048;-78
2022/11/09 05:52:37;;;;;;;13.08;7.08;;;;;;;4.94;96.33;98286.36;1686347;85;21060;-78
2022/11/09 05:55:06;;;;;;;14.07;7.50;;;;;;;4.97;96.26;98292.04;1688770;85;21476;-77
2022/11/09 05:57:33;;;;;;;12.60;7.00;;;;;;;4.95;96.24;98291.18;1688050;84;21051;-77
2022/11/09 06:00:00;;;;;;;13.00;7.72;;;;;;;4.97;96.48;98295.98;1691641;84;21390;-77
2022/11/09 06:02:30;;;;;;;13.10;7.20;;;;;;;4.99;96.54;98290.30;1685227;84;21005;-79
2022/11/09 06:04:58;;;;;;;10.65;6.97;;;;;;;5.01;96.45;98297.30;1689579;84;20997;-78
2022/11/09 06:07:25;;;;;;;12.35;6.95;;;;;;;5.07;97.06;98301.64;1690335;84;21004;-78
2022/11/09 06:09:51;;;;;;;12.82;7.70;;;;;;;5.18;96.89;98308.66;1689621;85;21020;-78
2022/11/09 06:12:18;;;;;;;11.85;7.60;;;;;;;5.22;96.80;98311.69;1690247;83;20988;-78
2022/11/09 06:14:44;;;;;;;13.75;8.15;;;;;;;5.25;96.59;98312.58;1688424;85;21045;-76
2022/11/09 06:17:11;;;;;;;13.85;8.18;;;;;;;5.26;96.59;98318.25;1690384;85;21068;-76
2022/11/09 06:19:38;;;;;;;17.15;7.87;;;;;;;5.35;96.70;98317.34;1687428;83;20960;-76
2022/11/09 06:22:04;;;;;;;12.98;7.65;;;;;;;5.35;96.07;98320.43;1691675;83;20992;-78
2022/11/09 06:24:31;;;;;;;20.55;8.70;;;;;;;5.31;96.14;98322.17;1690022;83;20984;-77
2022/11/09 06:26:57;;;;;;;13.95;8.28;;;;;;;5.34;96.91;98319.55;1688638;83;20965;-78
2022/11/09 06:29:24;;;;;;;17.35;9.30;;;;;;;5.39;96.79;98320.41;1690558;85;21481;-78
2022/11/09 06:31:50;;;;;;;16.15;9.20;;;;;;;5.45;96.61;98320.83;1693045;85;20963;-79
2022/11/09 06:34:17;;;;;;;24.12;9.23;;;;;;;5.51;96.95;98322.54;1693082;84;21010;-79
2022/11/09 06:36:43;;;;;;;18.25;9.15;;;;;;;5.51;96.31;98320.80;1691130;84;21441;-78
2022/11/09 06:39:10;;;;;;;18.70;8.65;;;;;;;5.52;96.43;98315.97;1689618;85;21028;-78
2022/11/09 06:41:36;;;;;;;18.95;10.38;;;;;;;5.53;96.20;98319.48;1692963;85;22100;-78
2022/11/09 06:44:04;;;;;;;18.52;10.90;;;;;;;5.53;96.14;98324.28;1679384;84;21069;-78
2022/11/09 06:46:32;;;;;;;24.60;11.38;;;;;;;5.58;96.29;98319.02;1672023;85;21419;-78
2022/11/09 06:48:59;;;;;;;24.77;12.03;;;;;;;5.55;95.96;98316.39;1676858;85;21021;-75
2022/11/09 06:51:26;;;;;;;20.60;12.03;;;;;;;5.52;95.80;98329.11;1691188;83;20980;-77
2022/11/09 06:53:53;;;;;;;23.18;12.03;;;;;;;5.46;95.75;98330.45;1691652;84;21446;-76
2022/11/09 06:56:19;;;;;;;20.17;11.20;;;;;;;5.44;95.87;98324.77;1671691;84;21416;-78
2022/11/09 06:58:48;;;;;;;18.32;11.00;;;;;;;5.45;95.84;98326.52;1678300;85;21021;-78
2022/11/09 07:01:17;;;;;;;21.02;11.93;;;;;;;5.44;95.97;98326.94;1672074;85;21054;-78
2022/11/09 07:03:44;;;;;;;20.27;10.80;;;;;;;5.47;95.97;98325.63;1668623;85;21099;-78
2022/11/09 07:06:12;;;;;;;25.37;11.20;;;;;;;5.50;95.97;98326.05;1672965;84;20951;-78
2022/11/09 07:08:39;;;;;;;19.57;11.05;;;;;;;5.52;96.02;98329.11;1690441;85;20993;-78
2022/11/09 07:11:09;;;;;;;19.87;11.95;;;;;;;5.57;95.84;98327.80;1691568;85;20976;-78
2022/11/09 07:13:38;;;;;;;21.10;11.12;;;;;;;5.61;95.95;98328.66;1677056;84;22054;-78
2022/11/09 07:16:07;;;;;;;25.37;13.60;;;;;;;5.64;95.78;98328.62;1668255;85;21057;-76
2022/11/09 07:18:34;;;;;;;22.48;12.73;;;;;;;5.63;95.56;98328.19;1673882;85;21431;-76
2022/11/09 07:21:04;;;;;;;24.87;12.35;;;;;;;5.64;95.72;98329.94;1674806;85;21041;-77
2022/11/09 07:23:30;;;;;;;22.15;12.35;;;;;;;5.67;95.65;98326.88;1689304;84;20972;-77
2022/11/09 07:26:00;;;;;;;28.25;16.60;;;;;;;5.74;95.91;98322.89;1689239;85;21473;-77
2022/11/09 07:28:27;;;;;;;26.55;14.45;;;;;;;5.78;95.55;98329.44;1691339;85;21037;-77
2022/11/09 07:30:54;;;;;;;21.25;11.10;;;;;;;5.79;95.29;98320.69;1692917;84;20985;-76
2022/11/09 07:33:21;;;;;;;22.00;11.40;;;;;;;5.77;95.28;98326.38;1692937;85;21033;-76
2022/11/09 07:35:48;;;;;;;19.17;10.58;;;;;;;5.75;95.05;98325.52;1691656;84;20973;-76
2022/11/09 07:38:16;;;;;;;22.22;11.50;;;;;;;5.76;95.31;98325.95;1692968;84;21387;-76
2022/11/09 07:40:43;;;;;;;25.23;11.45;;;;;;;5.83;95.35;98322.85;1692953;84;21085;-77
2022/11/09 07:43:11;;;;;;;22.90;11.15;;;;;;;5.87;95.13;98328.53;1693104;84;20971;-77
2022/11/09 07:45:40;;;;;;;24.12;12.73;;;;;;;5.94;94.99;98327.60;1691508;85;21433;-77
2022/11/09 07:48:11;;;;;;;20.23;11.10;;;;;;;6.01;95.21;98328.45;1691365;84;20943;-77
2022/11/09 07:50:39;;;;;;;21.02;10.25;;;;;;;6.11;95.51;98328.00;1692526;84;21038;-79
2022/11/09 07:53:07;;;;;;;22.17;11.18;;;;;;;6.23;95.29;98330.11;1692949;84;21054;-76
2022/11/09 07:55:35;;;;;;;18.80;10.82;;;;;;;6.24;94.94;98334.06;1693127;84;21384;-79
2022/11/09 07:58:09;;;;;;;17.65;10.08;;;;;;;6.27;95.12;98330.53;1691520;84;20980;-79
2022/11/09 08:00:38;;;;;;;19.00;10.95;;;;;;;6.31;95.36;98330.48;1693298;83;20971;-77
2022/11/09 08:03:06;;;;;;;22.50;10.23;;;;;;;6.37;95.41;98325.63;1694601;84;20990;-76
2022/11/09 08:05:33;;;;;;;20.30;10.82;;;;;;;6.47;95.73;98326.42;1701336;84;21080;-76
2022/11/09 08:08:04;;;;;;;20.52;10.95;;;;;;;6.55;95.44;98328.56;1698667;84;21461;-77
2022/11/09 08:10:33;;;;;;;20.02;10.68;;;;;;;6.65;95.58;98317.95;1703267;83;21099;-75
2022/11/09 08:13:07;;;;;;;23.57;11.28;;;;;;;6.74;95.62;98323.14;1695695;83;21128;-77
2022/11/09 08:15:41;;;;;;;22.85;11.22;;;;;;;6.84;95.78;98314.27;1699242;83;20991;-75
2022/11/09 08:18:12;;;;;;;23.35;11.53;;;;;;;7.07;95.04;98321.52;1697574;84;20963;-78
2022/11/09 08:20:44;;;;;;;52.55;26.97;;;;;;;7.07;95.04;98321.52;1685305;84;21097;-67
2022/11/09 08:23:15;;;;;;;23.75;11.83;;;;;;;7.15;94.99;98314.41;1693826;84;20972;-67
2022/11/09 08:25:43;;;;;;;26.05;12.13;;;;;;;7.20;95.06;98320.51;1696921;83;21062;-68
2022/11/09 08:28:11;;;;;;;24.30;12.80;;;;;;;7.18;94.69;98314.83;1669810;85;21019;-67
2022/11/09 08:30:38;;;;;;;26.25;12.35;;;;;;;7.19;94.47;98317.88;1678151;84;21341;-67
2022/11/09 08:33:05;;;;;;;29.52;11.78;;;;;;;7.19;94.50;98318.73;1696231;84;21059;-67
2022/11/09 08:35:32;;;;;;;28.15;12.68;;;;;;;7.23;94.72;98314.33;1687010;84;21048;-67
2022/11/09 08:38:03;;;;;;;27.80;13.58;;;;;;;7.22;94.49;98317.40;1704654;83;21001;-67
2022/11/09 08:40:32;;;;;;;28.32;13.95;;;;;;;7.27;94.53;98313.41;1672138;84;21056;-68
2022/11/09 08:43:08;;;;;;;26.87;13.35;;;;;;;7.30;94.37;98321.73;1699954;83;20989;-67
2022/11/09 08:45:37;;;;;;;35.40;14.23;;;;;;;7.32;94.73;98318.62;1701417;84;21438;-67
2022/11/09 08:48:06;;;;;;;36.63;14.85;;;;;;;7.33;94.26;98320.36;1700244;84;21450;-67
2022/11/09 08:50:35;;;;;;;30.30;13.68;;;;;;;7.32;93.99;98318.19;1693841;84;20977;-67
2022/11/09 08:53:03;;;;;;;33.05;14.58;;;;;;;7.28;94.25;98312.52;1680346;85;21025;-67
2022/11/09 08:55:35;;;;;;;32.20;15.45;;;;;;;7.35;94.82;98309.37;1668953;85;21433;-68
2022/11/09 08:58:03;;;;;;;33.18;14.63;;;;;;;7.44;95.12;98315.86;1650536;85;20978;-67
2022/11/09 09:00:30;;;;;;;35.83;16.73;;;;;;;7.56;95.29;98316.59;1670022;85;21014;-67
2022/11/09 09:02:57;;;;;;;37.67;16.45;;;;;;;7.59;94.93;98316.10;1670128;85;21082;-68
2022/11/09 09:05:25;;;;;;;42.10;18.05;;;;;;;7.63;94.92;98311.65;1671499;85;21054;-67
2022/11/09 09:07:52;;;;;;;43.40;20.27;;;;;;;7.63;94.42;98310.33;1671681;85;21076;-68
2022/11/09 09:10:18;;;;;;;36.80;16.20;;;;;;;7.57;94.38;98309.98;1688746;84;21051;-68
2022/11/09 09:12:45;;;;;;;40.20;18.85;;;;;;;7.60;94.59;98309.92;1692932;85;20985;-69
2022/11/09 09:15:12;;;;;;;42.03;18.42;;;;;;;7.66;94.86;98308.98;1691235;84;21448;-68
2022/11/09 09:17:38;;;;;;;35.63;17.02;;;;;;;7.70;94.40;98308.06;1689736;84;20950;-68
2022/11/09 09:20:07;;;;;;;38.95;17.75;;;;;;;7.74;95.04;98308.45;1651993;87;21080;-67
2022/11/09 09:22:39;;;;;;;43.17;19.05;;;;;;;7.82;95.11;98305.70;1661442;85;21125;-69
2022/11/09 09:25:07;;;;;;;42.20;19.07;;;;;;;7.88;95.04;98306.05;1689245;84;21133;-67
2022/11/09 09:27:35;;;;;;;49.40;19.52;;;;;;;7.91;94.78;98308.66;1690058;84;21005;-68
2022/11/09 09:30:01;;;;;;;49.05;19.82;;;;;;;7.92;94.67;98310.40;1690529;84;22143;-67
2022/11/09 09:32:28;;;;;;;47.20;20.60;;;;;;;7.94;94.71;98307.31;1684642;85;20989;-68
2022/11/09 09:34:55;;;;;;;41.98;19.67;;;;;;;7.97;94.81;98300.65;1653615;87;21403;-69
2022/11/09 09:37:23;;;;;;;47.25;21.00;;;;;;;8.00;94.23;98294.45;1688427;85;21059;-68
2022/11/09 09:39:50;;;;;;;50.17;21.73;;;;;;;8.01;94.51;98290.95;1690457;83;21164;-68
2022/11/09 09:42:22;;;;;;;52.75;23.15;;;;;;;8.03;94.46;98286.06;1689358;84;21000;-68
2022/11/09 09:45:14;;;;;;;54.45;23.90;;;;;;;8.02;94.25;98287.41;1638889;87;21021;-69
2022/11/09 09:48:03;;;;;;;53.52;24.02;;;;;;;8.03;94.35;98285.19;1640628;87;20962;-69
2022/11/09 09:50:36;;;;;;;49.27;22.07;;;;;;;8.05;94.24;98284.70;1666024;85;21443;-68
2022/11/09 09:53:36;;;;;;;53.68;22.67;;;;;;;8.02;94.57;98280.34;1673338;85;21020;-68
2022/11/09 09:56:10;;;;;;;53.68;22.93;;;;;;;8.02;94.67;98281.66;1663005;85;21068;-68
2022/11/09 09:58:45;;;;;;;57.25;23.50;;;;;;;8.03;94.83;98270.23;1649203;85;21080;-68
2022/11/09 10:01:20;;;;;;;56.63;24.75;;;;;;;8.13;94.76;98268.74;1663506;85;21020;-67
2022/11/09 10:03:48;;;;;;;55.15;24.75;;;;;;;8.19;94.11;98266.03;1676761;85;20997;-68
2022/11/09 10:06:44;;;;;;;55.58;23.62;;;;;;;8.26;94.62;98265.02;1670338;85;21009;-68
2022/11/09 10:09:54;;;;;;;54.10;23.80;;;;;;;8.36;94.55;98267.09;1668556;85;21072;-67
2022/11/09 10:12:43;;;;;;;48.63;23.60;;;;;;;8.50;94.98;98267.28;1670102;85;20973;-68
2022/11/09 10:15:39;;;;;;;58.02;24.70;;;;;;;8.67;94.85;98258.66;1671910;85;20994;-67
2022/11/09 10:18:23;;;;;;;46.05;22.50;;;;;;;8.82;95.18;98255.33;1662559;85;21021;-69
2022/11/09 10:20:59;;;;;;;47.53;22.82;;;;;;;8.92;94.80;98253.37;1665324;85;21084;-69
2022/11/09 10:23:36;;;;;;;46.68;22.22;;;;;;;9.01;94.67;98247.91;1671498;85;21029;-69
2022/11/09 10:26:22;;;;;;;41.70;20.52;;;;;;;9.08;95.08;98235.01;1673584;85;21064;-69
2022/11/09 10:29:03;;;;;;;36.58;18.85;;;;;;;9.20;95.28;98245.80;1672002;85;21463;-69
2022/11/09 10:31:34;;;;;;;36.10;19.55;;;;;;;9.37;95.23;98248.10;1652297;86;21043;-68
2022/11/09 10:34:09;;;;;;;38.70;18.05;;;;;;;9.47;94.33;98250.08;1666452;86;20997;-68
2022/11/09 10:37:02;;;;;;;31.07;18.05;;;;;;;9.53;94.17;98250.42;1652287;86;20992;-68
2022/11/09 10:39:40;;;;;;;35.75;18.85;;;;;;;9.54;93.88;98252.62;1630214;86;21045;-68
2022/11/09 10:42:25;;;;;;;42.40;20.95;;;;;;;9.58;93.90;98251.19;1654295;86;21391;-68
2022/11/09 10:45:21;;;;;;;39.98;21.07;;;;;;;9.55;93.46;98246.42;1637917;87;20977;-68
2022/11/09 10:48:09;;;;;;;44.40;20.88;;;;;;;9.59;93.80;98244.98;1669999;86;21421;-68
2022/11/09 10:50:54;;;;;;;46.83;21.00;;;;;;;9.62;93.45;98240.97;1669248;86;21099;-68
2022/11/09 10:53:39;;;;;;;44.48;21.82;;;;;;;9.64;93.43;98231.20;1694232;85;21038;-68
2022/11/09 10:56:26;;;;;;;43.02;21.12;;;;;;;9.61;92.75;98239.23;1694457;85;20955;-67
2022/11/09 10:59:33;;;;;;;42.40;20.60;;;;;;;9.58;92.75;98238.40;1694394;84;21047;-69
2022/11/09 11:02:29;;;;;;;39.53;20.30;;;;;;;9.50;91.96;98232.84;1646686;86;20990;-68
2022/11/09 11:05:23;;;;;;;39.50;19.17;;;;;;;9.47;92.79;98228.07;1689510;85;21030;-68
2022/11/09 11:08:25;;;;;;;38.65;20.37;;;;;;;9.48;92.71;98229.80;1688543;84;21000;-68
2022/11/09 11:11:18;;;;;;;39.23;19.92;;;;;;;9.47;92.72;98235.53;1693621;85;21441;-68
2022/11/09 11:14:24;;;;;;;35.17;19.80;;;;;;;9.45;92.54;98229.42;1694634;84;21487;-68
2022/11/09 11:17:23;;;;;;;37.20;18.73;;;;;;;9.49;92.68;98227.57;1694266;84;20995;-68
2022/11/09 11:20:33;;;;;;;40.90;20.32;;;;;;;9.46;92.60;98222.33;1687834;85;21046;-68
2022/11/09 11:23:22;;;;;;;38.33;19.57;;;;;;;9.44;92.61;98224.16;1685591;85;20969;-68
2022/11/09 11:26:24;;;;;;;40.52;19.92;;;;;;;9.43;92.81;98223.27;1692849;85;21064;-68
2022/11/09 11:29:45;;;;;;;36.63;18.30;;;;;;;9.40;92.48;98218.50;1694588;85;21011;-67
2022/11/09 11:32:30;;;;;;;43.38;20.75;;;;;;;9.38;92.65;98220.73;1694369;85;20963;-68
2022/11/09 11:35:48;;;;;;;38.75;17.82;;;;;;;9.39;92.72;98216.33;1684017;85;21397;-68
2022/11/09 11:38:47;;;;;;;40.52;21.45;;;;;;;9.39;92.45;98215.01;1679030;85;21041;-68
2022/11/09 11:41:55;;;;;;;44.25;19.87;;;;;;;9.37;92.61;98208.86;1694642;84;21042;-69
2022/11/09 11:44:52;;;;;;;41.58;21.57;;;;;;;9.36;92.30;98205.36;1694194;84;21472;-68
2022/11/09 11:48:15;;;;;;;40.88;20.27;;;;;;;9.33;92.07;98210.70;1694050;84;21026;-68
2022/11/09 11:51:23;;;;;;;44.20;20.77;;;;;;;9.32;92.48;98202.36;1690944;82;21389;-67
2022/11/09 11:54:38;;;;;;;45.45;21.42;;;;;;;9.27;91.81;98204.67;1694336;84;20978;-67